sensor_id;sensor_type;location;lat;lon;timestamp;temperature;humidity
22827;DHT22;11580;52.562;13.418;2023-02-01T00:01:32;8.20;43.90
22827;DHT22;11580;52.562;13.418;2023-02-01T00:03:59;8.10;43.90
22827;DHT22;11580;52.562;13.418;2023-02-01T00:06:27;8.10;44.00
22827;DHT22;11580;52.562;13.418;2023-02-01T00:08:54;8.10;44.00
22827;DHT22;11580;52.562;13.418;2023-02-01T00:11:22;8.00;43.80
22827;DHT22;11580;52.562;13.418;2023-02-01T00:13:50;8.00;43.80
22827;DHT22;11580;52.562;13.418;2023-02-01T00:16:21;7.90;44.30
22827;DHT22;11580;52.562;13.418;2023-02-01T00:18:51;7.90;43.80
22827;DHT22;11580;52.562;13.418;2023-02-01T00:21:22;7.90;43.70
22827;DHT22;11580;52.562;13.418;2023-02-01T00:23:49;7.80;43.50
22827;DHT22;11580;52.562;13.418;2023-02-01T00:26:19;7.80;44.30
22827;DHT22;11580;52.562;13.418;2023-02-01T00:28:51;7.70;43.60
22827;DHT22;11580;52.562;13.418;2023-02-01T00:31:20;7.70;43.60
22827;DHT22;11580;52.562;13.418;2023-02-01T00:33:47;7.70;43.80
22827;DHT22;11580;52.562;13.418;2023-02-01T00:36:16;7.60;43.70
22827;DHT22;11580;52.562;13.418;2023-02-01T00:38:44;7.60;43.70
22827;DHT22;11580;52.562;13.418;2023-02-01T00:41:13;7.60;43.80
22827;DHT22;11580;52.562;13.418;2023-02-01T00:43:42;7.60;43.90
22827;DHT22;11580;52.562;13.418;2023-02-01T00:46:11;7.60;44.00
22827;DHT22;11580;52.562;13.418;2023-02-01T00:48:41;7.50;44.00
22827;DHT22;11580;52.562;13.418;2023-02-01T00:51:11;7.50;44.20
22827;DHT22;11580;52.562;13.418;2023-02-01T00:53:40;7.50;44.80
22827;DHT22;11580;52.562;13.418;2023-02-01T00:56:07;7.60;45.20
22827;DHT22;11580;52.562;13.418;2023-02-01T00:58:35;7.60;45.30
22827;DHT22;11580;52.562;13.418;2023-02-01T01:01:04;7.60;45.60
22827;DHT22;11580;52.562;13.418;2023-02-01T01:03:35;7.70;45.90
22827;DHT22;11580;52.562;13.418;2023-02-01T01:06:08;7.80;45.60
22827;DHT22;11580;52.562;13.418;2023-02-01T01:08:38;7.80;45.40
22827;DHT22;11580;52.562;13.418;2023-02-01T01:11:06;7.90;45.20
22827;DHT22;11580;52.562;13.418;2023-02-01T01:13:35;7.90;45.00
22827;DHT22;11580;52.562;13.418;2023-02-01T01:16:03;8.00;44.90
22827;DHT22;11580;52.562;13.418;2023-02-01T01:18:34;8.00;44.90
22827;DHT22;11580;52.562;13.418;2023-02-01T01:21:03;8.00;44.80
22827;DHT22;11580;52.562;13.418;2023-02-01T01:23:32;8.00;44.60
22827;DHT22;11580;52.562;13.418;2023-02-01T01:26:00;8.00;44.70
22827;DHT22;11580;52.562;13.418;2023-02-01T01:28:27;8.00;44.80
22827;DHT22;11580;52.562;13.418;2023-02-01T01:30:55;8.00;45.00
22827;DHT22;11580;52.562;13.418;2023-02-01T01:33:22;8.00;45.00
22827;DHT22;11580;52.562;13.418;2023-02-01T01:35:49;8.00;45.10
22827;DHT22;11580;52.562;13.418;2023-02-01T01:38:16;8.00;45.00
22827;DHT22;11580;52.562;13.418;2023-02-01T01:40:46;8.00;44.80
22827;DHT22;11580;52.562;13.418;2023-02-01T01:43:18;8.00;45.40
22827;DHT22;11580;52.562;13.418;2023-02-01T01:45:49;8.00;44.40
22827;DHT22;11580;52.562;13.418;2023-02-01T01:48:20;8.00;44.30
22827;DHT22;11580;52.562;13.418;2023-02-01T01:50:58;8.00;44.30
22827;DHT22;11580;52.562;13.418;2023-02-01T01:53:32;8.00;45.30
22827;DHT22;11580;52.562;13.418;2023-02-01T01:56:06;8.00;44.50
22827;DHT22;11580;52.562;13.418;2023-02-01T01:58:34;7.90;44.40
22827;DHT22;11580;52.562;13.418;2023-02-01T02:01:01;7.90;44.50
22827;DHT22;11580;52.562;13.418;2023-02-01T02:03:33;7.90;44.60
22827;DHT22;11580;52.562;13.418;2023-02-01T02:06:06;7.90;44.90
22827;DHT22;11580;52.562;13.418;2023-02-01T02:08:41;8.00;45.20
22827;DHT22;11580;52.562;13.418;2023-02-01T02:11:10;8.00;45.20
22827;DHT22;11580;52.562;13.418;2023-02-01T02:13:42;8.00;45.20
22827;DHT22;11580;52.562;13.418;2023-02-01T02:16:24;8.00;45.00
22827;DHT22;11580;52.562;13.418;2023-02-01T02:19:22;8.00;45.20
22827;DHT22;11580;52.562;13.418;2023-02-01T02:32:03;8.00;45.30
22827;DHT22;11580;52.562;13.418;2023-02-01T02:34:53;8.00;45.10
22827;DHT22;11580;52.562;13.418;2023-02-01T02:37:31;8.10;45.30
22827;DHT22;11580;52.562;13.418;2023-02-01T02:40:10;8.00;45.20
22827;DHT22;11580;52.562;13.418;2023-02-01T02:42:48;8.00;45.10
22827;DHT22;11580;52.562;13.418;2023-02-01T02:45:46;8.10;45.30
22827;DHT22;11580;52.562;13.418;2023-02-01T02:48:40;8.10;45.30
22827;DHT22;11580;52.562;13.418;2023-02-01T02:51:15;8.10;45.60
22827;DHT22;11580;52.562;13.418;2023-02-01T02:54:12;8.10;45.60
22827;DHT22;11580;52.562;13.418;2023-02-01T02:57:02;8.10;45.50
22827;DHT22;11580;52.562;13.418;2023-02-01T02:59:50;8.20;45.50
22827;DHT22;11580;52.562;13.418;2023-02-01T03:02:37;8.20;45.40
22827;DHT22;11580;52.562;13.418;2023-02-01T03:05:23;8.20;45.40
22827;DHT22;11580;52.562;13.418;2023-02-01T03:08:03;8.20;45.30
22827;DHT22;11580;52.562;13.418;2023-02-01T03:10:44;8.20;45.70
22827;DHT22;11580;52.562;13.418;2023-02-01T03:13:25;8.20;45.40
22827;DHT22;11580;52.562;13.418;2023-02-01T03:16:00;8.20;45.40
22827;DHT22;11580;52.562;13.418;2023-02-01T03:18:36;8.30;45.40
22827;DHT22;11580;52.562;13.418;2023-02-01T03:21:10;8.30;45.40
22827;DHT22;11580;52.562;13.418;2023-02-01T03:23:44;8.30;45.30
22827;DHT22;11580;52.562;13.418;2023-02-01T03:26:15;8.30;45.30
22827;DHT22;11580;52.562;13.418;2023-02-01T03:28:51;8.30;45.30
22827;DHT22;11580;52.562;13.418;2023-02-01T03:31:23;8.30;45.40
22827;DHT22;11580;52.562;13.418;2023-02-01T03:33:51;8.30;45.20
22827;DHT22;11580;52.562;13.418;2023-02-01T03:36:24;8.30;45.90
22827;DHT22;11580;52.562;13.418;2023-02-01T03:39:02;8.30;45.40
22827;DHT22;11580;52.562;13.418;2023-02-01T03:41:37;8.30;45.40
22827;DHT22;11580;52.562;13.418;2023-02-01T03:44:12;8.30;46.00
22827;DHT22;11580;52.562;13.418;2023-02-01T03:46:46;8.30;45.30
22827;DHT22;11580;52.562;13.418;2023-02-01T03:49:22;8.30;45.30
22827;DHT22;11580;52.562;13.418;2023-02-01T03:51:54;8.40;45.40
22827;DHT22;11580;52.562;13.418;2023-02-01T03:54:26;8.30;45.30
22827;DHT22;11580;52.562;13.418;2023-02-01T03:56:56;8.40;46.10
22827;DHT22;11580;52.562;13.418;2023-02-01T03:59:28;8.40;45.40
22827;DHT22;11580;52.562;13.418;2023-02-01T04:01:56;8.40;45.40
22827;DHT22;11580;52.562;13.418;2023-02-01T04:04:23;8.40;45.40
22827;DHT22;11580;52.562;13.418;2023-02-01T04:06:53;8.40;45.50
22827;DHT22;11580;52.562;13.418;2023-02-01T04:09:20;8.40;45.50
22827;DHT22;11580;52.562;13.418;2023-02-01T04:11:49;8.40;45.80
22827;DHT22;11580;52.562;13.418;2023-02-01T04:14:16;8.40;45.90
22827;DHT22;11580;52.562;13.418;2023-02-01T04:16:43;8.50;45.90
22827;DHT22;11580;52.562;13.418;2023-02-01T04:19:11;8.50;46.60
22827;DHT22;11580;52.562;13.418;2023-02-01T04:21:38;8.50;45.90
22827;DHT22;11580;52.562;13.418;2023-02-01T04:24:06;8.60;46.00
22827;DHT22;11580;52.562;13.418;2023-02-01T04:26:34;8.60;46.10
22827;DHT22;11580;52.562;13.418;2023-02-01T04:29:02;8.70;46.20
22827;DHT22;11580;52.562;13.418;2023-02-01T04:31:29;8.70;46.10
22827;DHT22;11580;52.562;13.418;2023-02-01T04:33:56;8.80;46.10
22827;DHT22;11580;52.562;13.418;2023-02-01T04:36:24;8.80;46.80
22827;DHT22;11580;52.562;13.418;2023-02-01T04:38:51;8.90;46.20
22827;DHT22;11580;52.562;13.418;2023-02-01T04:41:19;8.90;46.20
22827;DHT22;11580;52.562;13.418;2023-02-01T04:43:49;8.90;46.20
22827;DHT22;11580;52.562;13.418;2023-02-01T04:46:19;9.00;47.00
22827;DHT22;11580;52.562;13.418;2023-02-01T04:48:46;9.00;46.30
22827;DHT22;11580;52.562;13.418;2023-02-01T04:51:13;9.10;46.40
22827;DHT22;11580;52.562;13.418;2023-02-01T04:53:41;9.10;46.50
22827;DHT22;11580;52.562;13.418;2023-02-01T04:56:08;9.20;46.80
22827;DHT22;11580;52.562;13.418;2023-02-01T04:58:36;9.20;47.60
22827;DHT22;11580;52.562;13.418;2023-02-01T05:01:03;9.30;46.90
22827;DHT22;11580;52.562;13.418;2023-02-01T05:03:33;9.40;47.00
22827;DHT22;11580;52.562;13.418;2023-02-01T05:06:01;9.40;46.90
22827;DHT22;11580;52.562;13.418;2023-02-01T05:08:29;9.50;46.90
22827;DHT22;11580;52.562;13.418;2023-02-01T05:10:57;9.50;46.80
22827;DHT22;11580;52.562;13.418;2023-02-01T05:13:24;9.60;46.80
22827;DHT22;11580;52.562;13.418;2023-02-01T05:16:09;9.60;46.80
22827;DHT22;11580;52.562;13.418;2023-02-01T05:18:37;9.60;46.80
22827;DHT22;11580;52.562;13.418;2023-02-01T05:21:05;9.70;46.90
22827;DHT22;11580;52.562;13.418;2023-02-01T05:23:32;9.70;46.90
22827;DHT22;11580;52.562;13.418;2023-02-01T05:26:19;9.70;46.90
22827;DHT22;11580;52.562;13.418;2023-02-01T05:28:46;9.80;47.00
22827;DHT22;11580;52.562;13.418;2023-02-01T05:31:13;9.80;47.70
22827;DHT22;11580;52.562;13.418;2023-02-01T05:33:42;9.90;47.00
22827;DHT22;11580;52.562;13.418;2023-02-01T05:36:09;9.90;46.90
22827;DHT22;11580;52.562;13.418;2023-02-01T05:38:36;9.90;46.80
22827;DHT22;11580;52.562;13.418;2023-02-01T05:41:04;9.90;47.60
22827;DHT22;11580;52.562;13.418;2023-02-01T05:43:31;9.90;46.90
22827;DHT22;11580;52.562;13.418;2023-02-01T05:45:58;10.00;46.00
22827;DHT22;11580;52.562;13.418;2023-02-01T05:48:26;10.00;45.90
22827;DHT22;11580;52.562;13.418;2023-02-01T05:50:54;10.00;46.10
22827;DHT22;11580;52.562;13.418;2023-02-01T05:53:21;10.00;46.00
22827;DHT22;11580;52.562;13.418;2023-02-01T05:55:49;10.00;46.10
22827;DHT22;11580;52.562;13.418;2023-02-01T05:58:16;10.10;46.10
22827;DHT22;11580;52.562;13.418;2023-02-01T06:00:43;10.10;46.00
22827;DHT22;11580;52.562;13.418;2023-02-01T06:03:10;10.10;46.60
22827;DHT22;11580;52.562;13.418;2023-02-01T06:05:37;10.10;45.90
22827;DHT22;11580;52.562;13.418;2023-02-01T06:08:06;10.10;45.90
22827;DHT22;11580;52.562;13.418;2023-02-01T06:10:34;10.10;45.80
22827;DHT22;11580;52.562;13.418;2023-02-01T06:13:01;10.10;45.70
22827;DHT22;11580;52.562;13.418;2023-02-01T06:15:29;10.20;45.80
22827;DHT22;11580;52.562;13.418;2023-02-01T06:17:57;10.20;45.70
22827;DHT22;11580;52.562;13.418;2023-02-01T06:20:24;10.10;46.10
22827;DHT22;11580;52.562;13.418;2023-02-01T06:22:51;10.20;45.60
22827;DHT22;11580;52.562;13.418;2023-02-01T06:25:20;10.20;45.60
22827;DHT22;11580;52.562;13.418;2023-02-01T06:27:47;10.20;46.10
22827;DHT22;11580;52.562;13.418;2023-02-01T06:30:15;10.20;45.50
22827;DHT22;11580;52.562;13.418;2023-02-01T06:32:44;10.20;45.30
22827;DHT22;11580;52.562;13.418;2023-02-01T06:35:19;10.20;45.90
22827;DHT22;11580;52.562;13.418;2023-02-01T06:37:46;10.10;45.00
22827;DHT22;11580;52.562;13.418;2023-02-01T06:40:14;10.10;45.00
22827;DHT22;11580;52.562;13.418;2023-02-01T06:42:42;10.10;45.00
22827;DHT22;11580;52.562;13.418;2023-02-01T06:45:10;10.10;44.90
22827;DHT22;11580;52.562;13.418;2023-02-01T06:47:37;10.00;44.90
22827;DHT22;11580;52.562;13.418;2023-02-01T06:50:05;10.00;45.60
22827;DHT22;11580;52.562;13.418;2023-02-01T06:52:33;10.00;44.90
22827;DHT22;11580;52.562;13.418;2023-02-01T06:55:00;10.00;45.00
22827;DHT22;11580;52.562;13.418;2023-02-01T06:57:27;10.00;44.90
22827;DHT22;11580;52.562;13.418;2023-02-01T06:59:57;10.00;44.90
22827;DHT22;11580;52.562;13.418;2023-02-01T07:02:25;10.00;44.70
22827;DHT22;11580;52.562;13.418;2023-02-01T07:04:52;10.00;44.80
22827;DHT22;11580;52.562;13.418;2023-02-01T07:07:19;10.00;45.30
22827;DHT22;11580;52.562;13.418;2023-02-01T07:09:49;10.00;44.70
22827;DHT22;11580;52.562;13.418;2023-02-01T07:12:17;10.00;44.70
22827;DHT22;11580;52.562;13.418;2023-02-01T07:14:45;10.00;45.30
22827;DHT22;11580;52.562;13.418;2023-02-01T07:17:14;10.00;44.50
22827;DHT22;11580;52.562;13.418;2023-02-01T07:19:41;10.00;44.10
22827;DHT22;11580;52.562;13.418;2023-02-01T07:22:08;10.00;44.30
22827;DHT22;11580;52.562;13.418;2023-02-01T07:24:35;10.10;44.40
22827;DHT22;11580;52.562;13.418;2023-02-01T07:27:02;10.10;44.20
22827;DHT22;11580;52.562;13.418;2023-02-01T07:29:30;10.10;44.10
22827;DHT22;11580;52.562;13.418;2023-02-01T07:31:57;10.10;44.00
22827;DHT22;11580;52.562;13.418;2023-02-01T07:34:27;10.10;43.90
22827;DHT22;11580;52.562;13.418;2023-02-01T07:36:54;10.10;43.50
22827;DHT22;11580;52.562;13.418;2023-02-01T07:39:21;10.10;44.00
22827;DHT22;11580;52.562;13.418;2023-02-01T07:41:49;10.10;44.80
22827;DHT22;11580;52.562;13.418;2023-02-01T07:44:17;10.20;44.10
22827;DHT22;11580;52.562;13.418;2023-02-01T07:46:48;10.20;44.00
22827;DHT22;11580;52.562;13.418;2023-02-01T07:49:15;10.20;43.90
22827;DHT22;11580;52.562;13.418;2023-02-01T07:51:44;10.20;43.70
22827;DHT22;11580;52.562;13.418;2023-02-01T07:54:11;10.20;43.90
22827;DHT22;11580;52.562;13.418;2023-02-01T07:56:38;10.20;43.40
22827;DHT22;11580;52.562;13.418;2023-02-01T07:59:05;10.20;43.20
22827;DHT22;11580;52.562;13.418;2023-02-01T08:01:33;10.20;43.30
22827;DHT22;11580;52.562;13.418;2023-02-01T08:04:02;10.20;42.90
22827;DHT22;11580;52.562;13.418;2023-02-01T08:06:32;10.20;42.50
22827;DHT22;11580;52.562;13.418;2023-02-01T08:09:02;10.10;42.30
22827;DHT22;11580;52.562;13.418;2023-02-01T08:11:31;10.10;42.20
22827;DHT22;11580;52.562;13.418;2023-02-01T08:13:58;10.00;42.20
22827;DHT22;11580;52.562;13.418;2023-02-01T08:16:25;9.90;43.80
22827;DHT22;11580;52.562;13.418;2023-02-01T08:18:53;9.90;43.80
22827;DHT22;11580;52.562;13.418;2023-02-01T08:21:22;9.80;43.10
22827;DHT22;11580;52.562;13.418;2023-02-01T08:23:51;9.70;43.00
22827;DHT22;11580;52.562;13.418;2023-02-01T08:26:22;9.60;43.20
22827;DHT22;11580;52.562;13.418;2023-02-01T08:28:52;9.60;43.30
22827;DHT22;11580;52.562;13.418;2023-02-01T08:31:22;9.50;43.50
22827;DHT22;11580;52.562;13.418;2023-02-01T08:33:53;9.40;43.60
22827;DHT22;11580;52.562;13.418;2023-02-01T08:36:23;9.40;43.70
22827;DHT22;11580;52.562;13.418;2023-02-01T08:38:52;9.30;43.70
22827;DHT22;11580;52.562;13.418;2023-02-01T08:41:22;9.30;44.00
22827;DHT22;11580;52.562;13.418;2023-02-01T08:43:51;9.20;44.10
22827;DHT22;11580;52.562;13.418;2023-02-01T08:46:20;9.20;44.00
22827;DHT22;11580;52.562;13.418;2023-02-01T08:48:48;9.10;44.10
22827;DHT22;11580;52.562;13.418;2023-02-01T08:51:17;9.10;44.10
22827;DHT22;11580;52.562;13.418;2023-02-01T08:53:46;9.10;44.20
22827;DHT22;11580;52.562;13.418;2023-02-01T08:56:16;9.00;44.20
22827;DHT22;11580;52.562;13.418;2023-02-01T08:58:45;9.00;44.40
22827;DHT22;11580;52.562;13.418;2023-02-01T09:01:14;9.00;44.20
22827;DHT22;11580;52.562;13.418;2023-02-01T09:03:42;8.90;44.40
22827;DHT22;11580;52.562;13.418;2023-02-01T09:06:11;8.90;45.30
22827;DHT22;11580;52.562;13.418;2023-02-01T09:08:41;8.80;44.90
22827;DHT22;11580;52.562;13.418;2023-02-01T09:11:11;8.80;44.90
22827;DHT22;11580;52.562;13.418;2023-02-01T09:13:40;8.80;45.20
22827;DHT22;11580;52.562;13.418;2023-02-01T09:16:08;8.80;45.30
22827;DHT22;11580;52.562;13.418;2023-02-01T09:18:35;8.80;45.70
22827;DHT22;11580;52.562;13.418;2023-02-01T09:21:04;8.80;45.70
22827;DHT22;11580;52.562;13.418;2023-02-01T09:23:32;8.80;46.10
22827;DHT22;11580;52.562;13.418;2023-02-01T09:25:59;8.90;46.20
22827;DHT22;11580;52.562;13.418;2023-02-01T09:28:27;8.90;46.60
22827;DHT22;11580;52.562;13.418;2023-02-01T09:30:56;8.90;46.50
22827;DHT22;11580;52.562;13.418;2023-02-01T09:33:25;9.00;47.00
22827;DHT22;11580;52.562;13.418;2023-02-01T09:35:56;9.00;46.30
22827;DHT22;11580;52.562;13.418;2023-02-01T09:38:23;9.10;46.40
22827;DHT22;11580;52.562;13.418;2023-02-01T09:40:53;9.10;46.40
22827;DHT22;11580;52.562;13.418;2023-02-01T09:43:29;9.10;46.40
22827;DHT22;11580;52.562;13.418;2023-02-01T09:46:18;9.10;47.20
22827;DHT22;11580;52.562;13.418;2023-02-01T09:48:53;9.10;46.70
22827;DHT22;11580;52.562;13.418;2023-02-01T09:51:25;9.10;46.50
22827;DHT22;11580;52.562;13.418;2023-02-01T09:54:01;9.20;46.60
22827;DHT22;11580;52.562;13.418;2023-02-01T09:56:36;9.20;46.50
22827;DHT22;11580;52.562;13.418;2023-02-01T09:59:15;9.20;46.70
22827;DHT22;11580;52.562;13.418;2023-02-01T10:01:50;9.30;46.90
22827;DHT22;11580;52.562;13.418;2023-02-01T10:04:19;9.30;47.20
22827;DHT22;11580;52.562;13.418;2023-02-01T10:06:55;9.30;47.10
22827;DHT22;11580;52.562;13.418;2023-02-01T10:09:45;9.40;47.20
22827;DHT22;11580;52.562;13.418;2023-02-01T10:12:43;9.40;46.90
22827;DHT22;11580;52.562;13.418;2023-02-01T10:15:29;9.50;46.90
22827;DHT22;11580;52.562;13.418;2023-02-01T10:18:15;9.50;46.60
22827;DHT22;11580;52.562;13.418;2023-02-01T10:20:57;9.50;46.40
22827;DHT22;11580;52.562;13.418;2023-02-01T10:23:46;9.50;46.20
22827;DHT22;11580;52.562;13.418;2023-02-01T10:26:27;9.50;46.10
22827;DHT22;11580;52.562;13.418;2023-02-01T10:29:03;9.50;46.00
22827;DHT22;11580;52.562;13.418;2023-02-01T10:31:39;9.40;46.40
22827;DHT22;11580;52.562;13.418;2023-02-01T10:34:15;9.50;46.40
22827;DHT22;11580;52.562;13.418;2023-02-01T10:36:53;9.40;46.60
22827;DHT22;11580;52.562;13.418;2023-02-01T10:39:22;9.50;46.70
22827;DHT22;11580;52.562;13.418;2023-02-01T10:41:50;9.50;46.70
22827;DHT22;11580;52.562;13.418;2023-02-01T10:44:20;9.50;47.00
22827;DHT22;11580;52.562;13.418;2023-02-01T10:46:52;9.50;47.50
22827;DHT22;11580;52.562;13.418;2023-02-01T10:49:24;9.60;48.30
22827;DHT22;11580;52.562;13.418;2023-02-01T10:52:05;9.70;47.40
22827;DHT22;11580;52.562;13.418;2023-02-01T10:54:39;9.70;46.90
22827;DHT22;11580;52.562;13.418;2023-02-01T10:57:08;9.80;46.70
22827;DHT22;11580;52.562;13.418;2023-02-01T10:59:37;9.80;46.30
22827;DHT22;11580;52.562;13.418;2023-02-01T11:02:16;9.80;46.20
22827;DHT22;11580;52.562;13.418;2023-02-01T11:04:47;9.80;46.20
22827;DHT22;11580;52.562;13.418;2023-02-01T11:07:19;9.80;45.90
22827;DHT22;11580;52.562;13.418;2023-02-01T11:09:53;9.70;45.80
22827;DHT22;11580;52.562;13.418;2023-02-01T11:12:32;9.70;46.20
22827;DHT22;11580;52.562;13.418;2023-02-01T11:15:14;9.70;46.10
22827;DHT22;11580;52.562;13.418;2023-02-01T11:17:46;9.70;46.30
22827;DHT22;11580;52.562;13.418;2023-02-01T11:20:18;9.80;47.60
22827;DHT22;11580;52.562;13.418;2023-02-01T11:22:53;9.90;47.10
22827;DHT22;11580;52.562;13.418;2023-02-01T11:25:23;9.90;47.00
22827;DHT22;11580;52.562;13.418;2023-02-01T11:27:54;10.00;46.20
22827;DHT22;11580;52.562;13.418;2023-02-01T11:30:30;10.10;46.30
22827;DHT22;11580;52.562;13.418;2023-02-01T11:33:00;10.20;47.00
22827;DHT22;11580;52.562;13.418;2023-02-01T11:35:29;10.30;46.90
22827;DHT22;11580;52.562;13.418;2023-02-01T11:37:59;10.40;47.00
22827;DHT22;11580;52.562;13.418;2023-02-01T11:40:29;10.60;46.70
22827;DHT22;11580;52.562;13.418;2023-02-01T11:43:14;10.70;46.80
22827;DHT22;11580;52.562;13.418;2023-02-01T11:45:54;10.80;45.40
22827;DHT22;11580;52.562;13.418;2023-02-01T11:48:24;11.00;45.00
22827;DHT22;11580;52.562;13.418;2023-02-01T11:51:04;11.10;45.70
22827;DHT22;11580;52.562;13.418;2023-02-01T11:54:13;11.20;44.40
22827;DHT22;11580;52.562;13.418;2023-02-01T11:56:54;11.20;43.00
22827;DHT22;11580;52.562;13.418;2023-02-01T11:59:51;11.30;44.50
22827;DHT22;11580;52.562;13.418;2023-02-01T12:02:57;11.40;43.00
22827;DHT22;11580;52.562;13.418;2023-02-01T12:05:44;11.40;42.60
22827;DHT22;11580;52.562;13.418;2023-02-01T12:08:28;11.50;43.50
22827;DHT22;11580;52.562;13.418;2023-02-01T12:11:32;11.60;43.60
22827;DHT22;11580;52.562;13.418;2023-02-01T12:14:23;11.70;43.30
22827;DHT22;11580;52.562;13.418;2023-02-01T12:17:18;12.00;43.40
22827;DHT22;11580;52.562;13.418;2023-02-01T12:20:10;12.00;42.70
22827;DHT22;11580;52.562;13.418;2023-02-01T12:22:56;12.10;43.30
22827;DHT22;11580;52.562;13.418;2023-02-01T12:25:51;12.20;42.80
22827;DHT22;11580;52.562;13.418;2023-02-01T12:31:43;12.20;41.20
22827;DHT22;11580;52.562;13.418;2023-02-01T12:34:34;12.30;41.50
22827;DHT22;11580;52.562;13.418;2023-02-01T12:37:30;12.20;41.50
22827;DHT22;11580;52.562;13.418;2023-02-01T12:40:19;12.20;41.40
22827;DHT22;11580;52.562;13.418;2023-02-01T12:42:59;12.30;41.00
22827;DHT22;11580;52.562;13.418;2023-02-01T12:45:36;12.20;41.00
22827;DHT22;11580;52.562;13.418;2023-02-01T12:48:23;12.10;40.20
22827;DHT22;11580;52.562;13.418;2023-02-01T12:50:56;12.00;39.30
22827;DHT22;11580;52.562;13.418;2023-02-01T12:53:32;12.00;41.10
22827;DHT22;11580;52.562;13.418;2023-02-01T12:56:12;11.90;40.40
22827;DHT22;11580;52.562;13.418;2023-02-01T12:58:45;11.80;40.60
22827;DHT22;11580;52.562;13.418;2023-02-01T13:01:20;11.70;40.80
22827;DHT22;11580;52.562;13.418;2023-02-01T13:03:57;11.60;39.80
22827;DHT22;11580;52.562;13.418;2023-02-01T13:06:34;11.50;40.40
22827;DHT22;11580;52.562;13.418;2023-02-01T13:09:09;11.50;40.70
22827;DHT22;11580;52.562;13.418;2023-02-01T13:11:45;11.50;40.10
22827;DHT22;11580;52.562;13.418;2023-02-01T13:14:19;11.50;41.80
22827;DHT22;11580;52.562;13.418;2023-02-01T13:16:59;11.50;39.50
22827;DHT22;11580;52.562;13.418;2023-02-01T13:19:33;11.30;35.30
22827;DHT22;11580;52.562;13.418;2023-02-01T13:22:12;11.00;34.90
22827;DHT22;11580;52.562;13.418;2023-02-01T13:24:46;10.50;35.50
22827;DHT22;11580;52.562;13.418;2023-02-01T13:27:18;10.10;36.10
22827;DHT22;11580;52.562;13.418;2023-02-01T13:29:51;9.60;37.80
22827;DHT22;11580;52.562;13.418;2023-02-01T13:33:04;9.30;40.00
22827;DHT22;11580;52.562;13.418;2023-02-01T13:35:50;8.90;41.20
22827;DHT22;11580;52.562;13.418;2023-02-01T13:38:54;8.70;41.70
22827;DHT22;11580;52.562;13.418;2023-02-01T13:41:50;8.50;43.30
22827;DHT22;11580;52.562;13.418;2023-02-01T13:44:25;8.40;43.20
22827;DHT22;11580;52.562;13.418;2023-02-01T13:46:58;8.40;44.30
22827;DHT22;11580;52.562;13.418;2023-02-01T13:49:32;8.40;44.70
22827;DHT22;11580;52.562;13.418;2023-02-01T13:52:04;8.50;45.40
22827;DHT22;11580;52.562;13.418;2023-02-01T13:54:33;8.60;45.40
22827;DHT22;11580;52.562;13.418;2023-02-01T13:57:06;8.70;45.70
22827;DHT22;11580;52.562;13.418;2023-02-01T14:00:08;8.80;45.80
22827;DHT22;11580;52.562;13.418;2023-02-01T14:06:14;9.10;46.40
22827;DHT22;11580;52.562;13.418;2023-02-01T14:09:11;9.20;46.50
22827;DHT22;11580;52.562;13.418;2023-02-01T14:11:45;9.30;46.50
22827;DHT22;11580;52.562;13.418;2023-02-01T14:14:44;9.40;46.10
22827;DHT22;11580;52.562;13.418;2023-02-01T14:17:39;9.50;46.60
22827;DHT22;11580;52.562;13.418;2023-02-01T14:20:40;9.80;46.30
22827;DHT22;11580;52.562;13.418;2023-02-01T14:23:23;9.70;46.40
22827;DHT22;11580;52.562;13.418;2023-02-01T14:26:05;9.80;45.40
22827;DHT22;11580;52.562;13.418;2023-02-01T14:28:45;9.80;45.30
22827;DHT22;11580;52.562;13.418;2023-02-01T14:31:35;9.90;45.10
22827;DHT22;11580;52.562;13.418;2023-02-01T14:34:17;9.90;45.20
22827;DHT22;11580;52.562;13.418;2023-02-01T14:36:51;9.90;45.20
22827;DHT22;11580;52.562;13.418;2023-02-01T14:39:30;9.90;45.20
22827;DHT22;11580;52.562;13.418;2023-02-01T14:42:03;9.90;46.40
22827;DHT22;11580;52.562;13.418;2023-02-01T14:44:41;9.90;45.60
22827;DHT22;11580;52.562;13.418;2023-02-01T14:47:27;9.90;45.60
22827;DHT22;11580;52.562;13.418;2023-02-01T14:50:17;10.00;45.10
22827;DHT22;11580;52.562;13.418;2023-02-01T14:53:17;10.00;45.00
22827;DHT22;11580;52.562;13.418;2023-02-01T14:55:52;10.10;45.30
22827;DHT22;11580;52.562;13.418;2023-02-01T14:58:32;10.10;44.90
22827;DHT22;11580;52.562;13.418;2023-02-01T15:01:05;10.10;45.00
22827;DHT22;11580;52.562;13.418;2023-02-01T15:03:47;10.20;44.90
22827;DHT22;11580;52.562;13.418;2023-02-01T15:06:32;10.20;44.80
22827;DHT22;11580;52.562;13.418;2023-02-01T15:09:09;10.30;44.70
22827;DHT22;11580;52.562;13.418;2023-02-01T15:11:56;10.30;44.50
22827;DHT22;11580;52.562;13.418;2023-02-01T15:14:26;10.30;45.20
22827;DHT22;11580;52.562;13.418;2023-02-01T15:16:54;10.30;44.50
22827;DHT22;11580;52.562;13.418;2023-02-01T15:19:23;10.40;44.30
22827;DHT22;11580;52.562;13.418;2023-02-01T15:21:53;10.40;44.00
22827;DHT22;11580;52.562;13.418;2023-02-01T15:24:23;10.40;44.50
22827;DHT22;11580;52.562;13.418;2023-02-01T15:26:54;10.40;43.60
22827;DHT22;11580;52.562;13.418;2023-02-01T15:29:24;10.30;43.40
22827;DHT22;11580;52.562;13.418;2023-02-01T15:31:53;10.30;43.00
22827;DHT22;11580;52.562;13.418;2023-02-01T15:34:22;10.30;42.90
22827;DHT22;11580;52.562;13.418;2023-02-01T15:36:49;10.20;42.80
22827;DHT22;11580;52.562;13.418;2023-02-01T15:39:20;10.10;42.80
22827;DHT22;11580;52.562;13.418;2023-02-01T15:41:55;10.20;42.80
22827;DHT22;11580;52.562;13.418;2023-02-01T15:44:32;10.00;42.80
22827;DHT22;11580;52.562;13.418;2023-02-01T15:47:10;10.00;42.90
22827;DHT22;11580;52.562;13.418;2023-02-01T15:49:43;9.90;43.60
22827;DHT22;11580;52.562;13.418;2023-02-01T15:52:23;9.80;43.60
22827;DHT22;11580;52.562;13.418;2023-02-01T15:54:56;9.70;43.70
22827;DHT22;11580;52.562;13.418;2023-02-01T15:57:31;9.70;43.50
22827;DHT22;11580;52.562;13.418;2023-02-01T16:00:03;9.60;43.20
22827;DHT22;11580;52.562;13.418;2023-02-01T16:02:43;9.50;42.70
22827;DHT22;11580;52.562;13.418;2023-02-01T16:05:32;9.30;42.30
22827;DHT22;11580;52.562;13.418;2023-02-01T16:08:06;9.20;42.50
22827;DHT22;11580;52.562;13.418;2023-02-01T16:10:40;9.00;41.70
22827;DHT22;11580;52.562;13.418;2023-02-01T16:13:10;8.80;41.60
22827;DHT22;11580;52.562;13.418;2023-02-01T16:15:38;8.60;42.00
22827;DHT22;11580;52.562;13.418;2023-02-01T16:18:06;8.50;42.40
22827;DHT22;11580;52.562;13.418;2023-02-01T16:20:35;8.30;42.70
22827;DHT22;11580;52.562;13.418;2023-02-01T16:23:03;8.20;43.00